QTR53H LFKJ-LFKC
Flight info
| Callsign | QTR53H |
|---|---|
| Flight time | 0h 24m |
| Altitude | 13000 |
| Route | LONSU DCT SODRI |
| Aircraft | A320/M-SDE3FGHIRWY/LB1 |
Departure
| Time | 2026-05-07 19:07 |
|---|---|
| Airport | Ajaccio Napoléon Bonaparte airport (LFKJ) |
Arrival
| Time | 2026-05-07 19:32 |
|---|---|
| Airport | Calvi Sainte Catherine Airport (LFKC) |
| Time | Latitude | Longitude | Altitude | Speed | Heading |
|---|---|---|---|---|---|
| 2026-05-07 18:50 | 41.92012 | 8.79611 | 26 ft | 0 kts | 345° |
| 2026-05-07 18:59 | 41.92014 | 8.79611 | 26 ft | 1 kts | 345° |
| 2026-05-07 19:00 | 41.92023 | 8.79615 | 26 ft | 2 kts | 26° |
| 2026-05-07 19:00 | 41.92036 | 8.79635 | 30 ft | 4 kts | 48° |
| 2026-05-07 19:00 | 41.92060 | 8.79671 | 26 ft | 6 kts | 48° |
| 2026-05-07 19:00 | 41.92095 | 8.79721 | 26 ft | 9 kts | 44° |
| 2026-05-07 19:01 | 41.92153 | 8.79766 | 31 ft | 11 kts | 25° |
| 2026-05-07 19:01 | 41.92229 | 8.79814 | 32 ft | 13 kts | 26° |
| 2026-05-07 19:01 | 41.92287 | 8.79850 | 29 ft | 14 kts | 24° |
| 2026-05-07 19:01 | 41.92422 | 8.79933 | 26 ft | 18 kts | 25° |
| 2026-05-07 19:02 | 41.92499 | 8.79981 | 26 ft | 19 kts | 25° |
| 2026-05-07 19:02 | 41.92587 | 8.80035 | 25 ft | 9 kts | 25° |
| 2026-05-07 19:02 | 41.92660 | 8.80080 | 22 ft | 13 kts | 25° |
| 2026-05-07 19:02 | 41.92707 | 8.80110 | 21 ft | 1 kts | 26° |
| 2026-05-07 19:03 | 41.92710 | 8.80112 | 21 ft | 0 kts | 26° |
| 2026-05-07 19:03 | 41.92718 | 8.80118 | 21 ft | 3 kts | 26° |
| 2026-05-07 19:03 | 41.92741 | 8.80133 | 21 ft | 5 kts | 27° |
| 2026-05-07 19:03 | 41.92776 | 8.80163 | 23 ft | 7 kts | 37° |
| 2026-05-07 19:04 | 41.92817 | 8.80209 | 23 ft | 5 kts | 41° |
| 2026-05-07 19:04 | 41.92823 | 8.80216 | 21 ft | 2 kts | 43° |
| 2026-05-07 19:04 | 41.92834 | 8.80237 | 21 ft | 3 kts | 69° |
| 2026-05-07 19:04 | 41.92824 | 8.80273 | 21 ft | 5 kts | 121° |
| 2026-05-07 19:05 | 41.92806 | 8.80322 | 21 ft | 7 kts | 116° |
| 2026-05-07 19:05 | 41.92797 | 8.80346 | 22 ft | 0 kts | 116° |
| 2026-05-07 19:05 | 41.92797 | 8.80348 | 22 ft | 1 kts | 116° |
| 2026-05-07 19:05 | 41.92790 | 8.80367 | 22 ft | 5 kts | 116° |
| 2026-05-07 19:06 | 41.92775 | 8.80407 | 23 ft | 5 kts | 116° |
| 2026-05-07 19:06 | 41.92696 | 8.80437 | 26 ft | 16 kts | 206° |
| 2026-05-07 19:06 | 41.92369 | 8.80233 | 22 ft | 87 kts | 205° |
| 2026-05-07 19:07 | 41.91645 | 8.79783 | 20 ft | 139 kts | 205° |
| 2026-05-07 19:07 | 41.90704 | 8.79194 | 390 ft | 148 kts | 204° |
| 2026-05-07 19:07 | 41.89791 | 8.78592 | 973 ft | 147 kts | 211° |
| 2026-05-07 19:07 | 41.88942 | 8.77805 | 1435 ft | 153 kts | 216° |
| 2026-05-07 19:08 | 41.88006 | 8.76925 | 1635 ft | 176 kts | 216° |
| 2026-05-07 19:08 | 41.86931 | 8.75918 | 1876 ft | 201 kts | 216° |
| 2026-05-07 19:08 | 41.85713 | 8.74783 | 2212 ft | 225 kts | 214° |
| 2026-05-07 19:08 | 41.84356 | 8.73524 | 2625 ft | 250 kts | 214° |
| 2026-05-07 19:09 | 41.82882 | 8.72158 | 3268 ft | 262 kts | 213° |
| 2026-05-07 19:09 | 41.81368 | 8.70760 | 4197 ft | 265 kts | 213° |
| 2026-05-07 19:09 | 41.79844 | 8.69354 | 5147 ft | 267 kts | 213° |
| 2026-05-07 19:09 | 41.78298 | 8.67953 | 6061 ft | 270 kts | 213° |
| 2026-05-07 19:10 | 41.76724 | 8.66546 | 6920 ft | 273 kts | 213° |
| 2026-05-07 19:10 | 41.75139 | 8.65127 | 7782 ft | 275 kts | 213° |
| 2026-05-07 19:10 | 41.73575 | 8.63702 | 8636 ft | 277 kts | 217° |
| 2026-05-07 19:10 | 41.72322 | 8.61746 | 9473 ft | 281 kts | 242° |
| 2026-05-07 19:11 | 41.71852 | 8.59197 | 10249 ft | 288 kts | 269° |
| 2026-05-07 19:11 | 41.72328 | 8.56585 | 10938 ft | 298 kts | 293° |
| 2026-05-07 19:11 | 41.73338 | 8.54030 | 11142 ft | 322 kts | 297° |
| 2026-05-07 19:11 | 41.74483 | 8.51324 | 11292 ft | 345 kts | 298° |
| 2026-05-07 19:12 | 41.75726 | 8.48454 | 11467 ft | 365 kts | 298° |
| 2026-05-07 19:12 | 41.77021 | 8.45475 | 11957 ft | 373 kts | 298° |
| 2026-05-07 19:12 | 41.78323 | 8.42453 | 12612 ft | 376 kts | 298° |
| 2026-05-07 19:12 | 41.79623 | 8.39393 | 13264 ft | 379 kts | 297° |
| 2026-05-07 19:13 | 41.80958 | 8.36321 | 13788 ft | 383 kts | 301° |
| 2026-05-07 19:13 | 41.82620 | 8.33517 | 13934 ft | 388 kts | 312° |
| 2026-05-07 19:13 | 41.84718 | 8.31094 | 13967 ft | 409 kts | 323° |
| 2026-05-07 19:13 | 41.87230 | 8.29191 | 13964 ft | 420 kts | 335° |
| 2026-05-07 19:14 | 41.90016 | 8.27971 | 13974 ft | 424 kts | 346° |
| 2026-05-07 19:14 | 41.92904 | 8.27151 | 13966 ft | 424 kts | 346° |
| 2026-05-07 19:14 | 41.95793 | 8.26327 | 13967 ft | 424 kts | 346° |
| 2026-05-07 19:14 | 41.98671 | 8.25497 | 13972 ft | 424 kts | 346° |
| 2026-05-07 19:15 | 42.01543 | 8.24665 | 13707 ft | 419 kts | 346° |
| 2026-05-07 19:15 | 42.04381 | 8.23844 | 12945 ft | 415 kts | 346° |
| 2026-05-07 19:15 | 42.07194 | 8.23032 | 12218 ft | 411 kts | 346° |
| 2026-05-07 19:15 | 42.09957 | 8.22233 | 11859 ft | 398 kts | 346° |
| 2026-05-07 19:16 | 42.12596 | 8.21469 | 11713 ft | 379 kts | 346° |
| 2026-05-07 19:16 | 42.15115 | 8.20739 | 11597 ft | 361 kts | 346° |
| 2026-05-07 19:16 | 42.17516 | 8.20041 | 11475 ft | 346 kts | 346° |
| 2026-05-07 19:16 | 42.19833 | 8.19367 | 11345 ft | 333 kts | 346° |
| 2026-05-07 19:17 | 42.22060 | 8.18718 | 11227 ft | 322 kts | 346° |
| 2026-05-07 19:17 | 42.24215 | 8.18089 | 11101 ft | 312 kts | 346° |
| 2026-05-07 19:17 | 42.26277 | 8.17487 | 10939 ft | 303 kts | 346° |
| 2026-05-07 19:17 | 42.28354 | 8.16883 | 10663 ft | 300 kts | 346° |
| 2026-05-07 19:18 | 42.30386 | 8.16289 | 10361 ft | 298 kts | 346° |
| 2026-05-07 19:18 | 42.32411 | 8.15698 | 10047 ft | 297 kts | 346° |
| 2026-05-07 19:18 | 42.34401 | 8.15118 | 9747 ft | 295 kts | 347° |
| 2026-05-07 19:18 | 42.36402 | 8.14537 | 9408 ft | 294 kts | 347° |
| 2026-05-07 19:19 | 42.38398 | 8.13958 | 9080 ft | 292 kts | 347° |
| 2026-05-07 19:19 | 42.40382 | 8.13380 | 8745 ft | 291 kts | 347° |
| 2026-05-07 19:19 | 42.42356 | 8.12801 | 8415 ft | 290 kts | 347° |
| 2026-05-07 19:19 | 42.44319 | 8.12225 | 8092 ft | 289 kts | 347° |
| 2026-05-07 19:20 | 42.46280 | 8.11650 | 7770 ft | 287 kts | 347° |
| 2026-05-07 19:20 | 42.48229 | 8.11072 | 7457 ft | 286 kts | 347° |
| 2026-05-07 19:20 | 42.50163 | 8.10483 | 7144 ft | 284 kts | 346° |
| 2026-05-07 19:20 | 42.52091 | 8.09900 | 6831 ft | 284 kts | 348° |
| 2026-05-07 19:21 | 42.54047 | 8.09913 | 6521 ft | 282 kts | 13° |
| 2026-05-07 19:21 | 42.55931 | 8.10642 | 6187 ft | 281 kts | 18° |
| 2026-05-07 19:21 | 42.57654 | 8.11841 | 5866 ft | 278 kts | 41° |
| 2026-05-07 19:21 | 42.59051 | 8.13648 | 5520 ft | 278 kts | 46° |
| 2026-05-07 19:22 | 42.60386 | 8.15532 | 5214 ft | 276 kts | 47° |
| 2026-05-07 19:22 | 42.61705 | 8.17416 | 4915 ft | 274 kts | 47° |
| 2026-05-07 19:22 | 42.63019 | 8.19288 | 4601 ft | 273 kts | 47° |
| 2026-05-07 19:22 | 42.64325 | 8.21141 | 4339 ft | 270 kts | 47° |
| 2026-05-07 19:23 | 42.65598 | 8.23002 | 4085 ft | 267 kts | 51° |
| 2026-05-07 19:23 | 42.66577 | 8.25098 | 3834 ft | 262 kts | 66° |
| 2026-05-07 19:23 | 42.67271 | 8.27372 | 3577 ft | 259 kts | 72° |
| 2026-05-07 19:23 | 42.67444 | 8.29759 | 3372 ft | 254 kts | 97° |
| 2026-05-07 19:24 | 42.67120 | 8.32129 | 3248 ft | 255 kts | 102° |
| 2026-05-07 19:24 | 42.66738 | 8.34483 | 3096 ft | 257 kts | 103° |
| 2026-05-07 19:24 | 42.66345 | 8.36871 | 2993 ft | 257 kts | 102° |
| 2026-05-07 19:24 | 42.65941 | 8.39226 | 2867 ft | 255 kts | 102° |
| 2026-05-07 19:25 | 42.65534 | 8.41567 | 2753 ft | 254 kts | 102° |
| 2026-05-07 19:25 | 42.65123 | 8.43892 | 2607 ft | 252 kts | 102° |
| 2026-05-07 19:25 | 42.64704 | 8.46207 | 2487 ft | 252 kts | 103° |
| 2026-05-07 19:25 | 42.64278 | 8.48529 | 2364 ft | 254 kts | 103° |
| 2026-05-07 19:26 | 42.63853 | 8.50844 | 2233 ft | 252 kts | 103° |
| 2026-05-07 19:26 | 42.63424 | 8.53154 | 2115 ft | 251 kts | 102° |
| 2026-05-07 19:26 | 42.62995 | 8.55455 | 2008 ft | 251 kts | 103° |
| 2026-05-07 19:26 | 42.62565 | 8.57749 | 2006 ft | 252 kts | 103° |
| 2026-05-07 19:27 | 42.62138 | 8.60057 | 2009 ft | 252 kts | 102° |
| 2026-05-07 19:27 | 42.61707 | 8.62360 | 2007 ft | 251 kts | 102° |
| 2026-05-07 19:27 | 42.61272 | 8.64659 | 2011 ft | 252 kts | 102° |
| 2026-05-07 19:27 | 42.60838 | 8.66960 | 2007 ft | 248 kts | 102° |
| 2026-05-07 19:28 | 42.60424 | 8.69169 | 2003 ft | 234 kts | 102° |
| 2026-05-07 19:28 | 42.60042 | 8.71181 | 2007 ft | 224 kts | 102° |
| 2026-05-07 19:28 | 42.59626 | 8.73242 | 1989 ft | 231 kts | 109° |
| 2026-05-07 19:28 | 42.58650 | 8.74948 | 1963 ft | 235 kts | 146° |
| 2026-05-07 19:29 | 42.57160 | 8.75786 | 1850 ft | 227 kts | 160° |
| 2026-05-07 19:29 | 42.55712 | 8.76541 | 1679 ft | 220 kts | 156° |
| 2026-05-07 19:29 | 42.54303 | 8.77204 | 1421 ft | 207 kts | 166° |
| 2026-05-07 19:29 | 42.52965 | 8.77442 | 1449 ft | 183 kts | 177° |
| 2026-05-07 19:30 | 42.51768 | 8.77440 | 1390 ft | 164 kts | 188° |
| 2026-05-07 19:30 | 42.50693 | 8.77164 | 1350 ft | 150 kts | 191° |
| 2026-05-07 19:30 | 42.49716 | 8.76969 | 1298 ft | 146 kts | 173° |
| 2026-05-07 19:30 | 42.48876 | 8.77680 | 1159 ft | 147 kts | 115° |
| 2026-05-07 19:31 | 42.48906 | 8.78952 | 974 ft | 143 kts | 51° |
| 2026-05-07 19:31 | 42.49791 | 8.79398 | 840 ft | 144 kts | 353° |
| 2026-05-07 19:31 | 42.50801 | 8.79314 | 584 ft | 146 kts | 1° |
| 2026-05-07 19:31 | 42.51805 | 8.79300 | 335 ft | 143 kts | 2° |
| 2026-05-07 19:32 | 42.52780 | 8.79295 | 171 ft | 129 kts | 6° |
| 2026-05-07 19:32 | 42.53399 | 8.79296 | 121 ft | 46 kts | 360° |
| 2026-05-07 19:32 | 42.53543 | 8.79294 | 114 ft | 17 kts | 348° |
| 2026-05-07 19:32 | 42.53565 | 8.79311 | 113 ft | 5 kts | 167° |
| 2026-05-07 19:33 | 42.53522 | 8.79307 | 114 ft | 6 kts | 184° |
| 2026-05-07 19:33 | 42.53488 | 8.79304 | 117 ft | 4 kts | 184° |
| 2026-05-07 19:33 | 42.53469 | 8.79302 | 114 ft | 5 kts | 184° |
| 2026-05-07 19:33 | 42.53401 | 8.79297 | 124 ft | 14 kts | 183° |
| 2026-05-07 19:34 | 42.53270 | 8.79292 | 134 ft | 23 kts | 180° |
| 2026-05-07 19:34 | 42.53077 | 8.79300 | 148 ft | 30 kts | 182° |
| 2026-05-07 19:34 | 42.52892 | 8.79297 | 162 ft | 22 kts | 178° |
| 2026-05-07 19:34 | 42.52750 | 8.79299 | 172 ft | 19 kts | 181° |
| 2026-05-07 19:35 | 42.52637 | 8.79297 | 182 ft | 14 kts | 181° |
| 2026-05-07 19:35 | 42.52553 | 8.79302 | 191 ft | 10 kts | 175° |
| 2026-05-07 19:35 | 42.52477 | 8.79297 | 192 ft | 14 kts | 194° |
| 2026-05-07 19:35 | 42.52432 | 8.79199 | 194 ft | 11 kts | 275° |
| 2026-05-07 19:36 | 42.52452 | 8.79119 | 204 ft | 9 kts | 303° |
| 2026-05-07 19:36 | 42.52476 | 8.79065 | 192 ft | 0 kts | 298° |
| 2026-05-07 19:36 | 42.52469 | 8.79084 | 192 ft | 0 kts | 298° |
| 2026-05-07 19:36 | 42.52470 | 8.79082 | 193 ft | 1 kts | 303° |